CheckWX is a tool to help pilots better visualize weather data.  It is not intended as a substitute for an official pre-flight weather briefing.

21:05:54 UTC

KCXO METAR
Conroe-North Houston Regional Airport
Houston, Texas, USA
Current

13 mins ago

KCXO 232053Z 30009KT 10SM CLR 22/05 A2990 RMK AO2 SLP122 T02220050 56013
Observed
Feb-23 @ 20:53 UTC
Wind
  • 300° at 9 KTS
Visibility
10 SM
Flight Rules
VFR
Cloud Levels
  • Clear skies
Temperature
22°C / 72°F
Dewpoint
C / 41°F
Humidity
33%
Altimeter
29.9" Hg
Pressure
1012.2 hPa
Previous

1 hour ago

KCXO 231953Z 29011G19KT 10SM CLR 21/06 A2991 RMK AO2 SLP124 T02110056
Observed
Feb-23 @ 19:53 UTC
Wind
  • 290° at 11 KTS
  • Gusting to 19 KTS
Visibility
10 SM
Flight Rules
VFR
Cloud Levels
  • Clear skies
Temperature
21°C / 70°F
Dewpoint
C / 43°F
Humidity
38%
Altimeter
29.91" Hg
Pressure
1012.4 hPa
Previous

2 hours ago

KCXO 231853Z 29010KT 10SM BKN043 20/08 A2992 RMK AO2 SLP129 T02000083
Observed
Feb-23 @ 18:53 UTC
Wind
  • 290° at 10 KTS
Visibility
10 SM
Flight Rules
VFR
Cloud Levels
  • Broken at 4,300' AGL
Temperature
20°C / 68°F
Dewpoint
C / 46°F
Humidity
46%
Altimeter
29.92" Hg
Pressure
1012.9 hPa